Etusivu
METAR-TAF:

METAR-TAF

Lentoasemat :

Bridgeport, Kalifornia, Yhdysvallat

Leveyspiiri: 38-15-45N, Pituuspiiri: 119-13-33W, korkeus merenpinnasta: 1973 m

Tämänhetkinen sää

Tämä raportti tehtiin 26 minuuttia sitten, kello 05.52 UTC
tyyntä
Lämpötila 3°C
Kosteus 70%
Ilmanpaine 1020 hPa
Näkyvyys: 16.1 km
Pilvistä 6000 ft:n korkeudessa

METAR: KBAN 260552Z AUTO 00000KT 10SM OVC060 03/M02 A3013 RMK AO2 SLP191 T00281022 10122 20017 58003 $

Aika: 22:18 (06:18 UTC)


TAF: puuttuu

Säähavainnot ja -ennusteet yli 4000 lentoasemalta (METAR- ja TAF-raportit).

Käytössä olevat sääasemat on merkitty karttaan keltaisilla ja punaisilla pisteillä.

Aseta hiiri pisteen päälle nähdäksesi sääaseman nimen.

Klikkaa sitten nähdäksesi säähavainnot ja -ennusteet.

Kartan vaihtaminen: klikkaa mustalla rastilla varustettuja vihreitä pisteitä, niin voit zoomata sisään; viivalla varustettua vihreää pistettä, niin voit zoomata ulos tai vihreitä nuolia, niin pääset viereisille kartoille.


METAR-TAF: